Time;durP1;ratioP1;P1;durP2;ratioP2;P2;SDS_P1;SDS_P2;PMS_P1;PMS_P2;Temp;Humidity;BMP_temperature;BMP_pressure;BME280_temperature;BME280_humidity;BME280_pressure;Samples;Min_cycle;Max_cycle;Signal;HPM_P1;HPM_P2
2023/10/29 15:32:22;;;;;;;4.15;0.80;;;;;;;;;;6664311;19;50706;-75
2023/10/29 15:34:47;;;;;;;7.45;1.10;;;;;;;;;;7341600;19;20118;-75
2023/10/29 15:37:12;;;;;;;3.83;1.00;;;;;;;;;;7338472;19;19995;-75
2023/10/29 15:39:38;;;;;;;5.07;1.00;;;;;;;;;;7350926;19;20263;-76
2023/10/29 15:42:03;;;;;;;4.90;1.05;;;;;;;;;;7307202;19;20016;-76
2023/10/29 15:44:30;;;;;;;6.47;1.00;;;;;;;;;;7356997;19;19999;-76
2023/10/29 15:46:55;;;;;;;5.15;1.20;;;;;;;;;;7354159;19;20497;-76
2023/10/29 15:49:23;;;;;;;3.78;0.93;;;;;;;;;;7354250;19;20022;-75
2023/10/29 15:51:48;;;;;;;7.80;1.23;;;;;;;;;;7359789;19;20026;-75
2023/10/29 15:54:14;;;;;;;2.50;0.73;;;;;;;;;;7358804;19;19995;-75
2023/10/29 15:56:39;;;;;;;4.35;1.00;;;;;;;;;;7352421;19;20031;-76
2023/10/29 15:59:04;;;;;;;4.63;1.00;;;;;;;;;;7355263;19;20450;-75
2023/10/29 16:01:32;;;;;;;5.38;1.02;;;;;;;;;;7359034;19;20760;-75
2023/10/29 16:03:59;;;;;;;4.80;1.13;;;;;;;;;;7357158;19;20341;-75
2023/10/29 16:06:25;;;;;;;5.10;0.98;;;;;;;;;;7340520;19;20618;-76
2023/10/29 16:08:50;;;;;;;4.93;0.98;;;;;;;;;;7356028;19;20009;-75
2023/10/29 16:11:22;;;;;;;5.07;1.00;;;;;;;;;;7343417;19;20036;-75
2023/10/29 16:13:47;;;;;;;4.00;1.00;;;;;;;;;;7351440;19;20267;-75
2023/10/29 16:16:12;;;;;;;4.20;1.08;;;;;;;;;;7352759;19;20026;-75
2023/10/29 16:18:37;;;;;;;2.77;0.97;;;;;;;;;;7358337;19;20384;-76
2023/10/29 16:21:03;;;;;;;3.92;0.90;;;;;;;;;;7356132;19;20327;-75
2023/10/29 16:23:29;;;;;;;10.10;1.42;;;;;;;;;;7349203;19;20002;-77
2023/10/29 16:25:54;;;;;;;5.25;0.85;;;;;;;;;;7354265;19;20002;-77
2023/10/29 16:28:19;;;;;;;6.13;1.20;;;;;;;;;;7350745;19;19998;-76
2023/10/29 16:30:44;;;;;;;3.75;1.02;;;;;;;;;;7353372;19;20013;-76
2023/10/29 16:33:09;;;;;;;5.43;1.00;;;;;;;;;;7356368;19;20003;-75
2023/10/29 16:35:36;;;;;;;4.47;1.15;;;;;;;;;;7353971;19;20271;-76
2023/10/29 16:38:02;;;;;;;5.47;1.08;;;;;;;;;;7358250;19;20387;-76
2023/10/29 16:40:27;;;;;;;4.57;1.05;;;;;;;;;;7343417;19;20019;-75
2023/10/29 16:42:52;;;;;;;6.30;1.40;;;;;;;;;;7309027;19;20026;-76
2023/10/29 16:45:21;;;;;;;9.18;1.48;;;;;;;;;;7351689;19;20264;-75
2023/10/29 16:47:46;;;;;;;4.07;1.05;;;;;;;;;;7346064;19;20045;-75
2023/10/29 16:50:11;;;;;;;4.13;1.02;;;;;;;;;;7364800;19;20324;-76
2023/10/29 16:52:36;;;;;;;3.57;0.97;;;;;;;;;;7351107;19;20009;-75
2023/10/29 16:55:01;;;;;;;4.53;1.00;;;;;;;;;;7357806;19;20486;-75
2023/10/29 16:57:27;;;;;;;3.45;0.93;;;;;;;;;;7357794;19;20251;-75
2023/10/29 16:59:52;;;;;;;5.30;0.80;;;;;;;;;;7366353;19;19990;-74
2023/10/29 17:02:17;;;;;;;5.10;1.10;;;;;;;;;;7363696;19;20006;-80
2023/10/29 17:04:42;;;;;;;4.43;1.10;;;;;;;;;;7355739;19;20642;-77
2023/10/29 17:07:08;;;;;;;3.05;0.93;;;;;;;;;;7369380;19;20765;-78
2023/10/29 17:09:33;;;;;;;6.25;1.10;;;;;;;;;;7367830;19;20395;-79
2023/10/29 17:11:58;;;;;;;6.95;1.70;;;;;;;;;;7371252;19;20038;-78
2023/10/29 17:14:23;;;;;;;9.43;1.45;;;;;;;;;;7368116;19;19999;-77
2023/10/29 17:16:49;;;;;;;7.40;1.10;;;;;;;;;;7368129;19;20003;-76
2023/10/29 17:19:14;;;;;;;4.40;1.23;;;;;;;;;;7343031;19;20017;-77
2023/10/29 17:21:40;;;;;;;5.40;1.10;;;;;;;;;;7370176;19;19991;-75
2023/10/29 17:24:05;;;;;;;5.55;1.10;;;;;;;;;;7364250;19;20018;-78
2023/10/29 17:26:30;;;;;;;7.97;1.13;;;;;;;;;;7366119;19;20098;-76
2023/10/29 17:28:56;;;;;;;11.33;1.77;;;;;;;;;;7366714;19;20633;-77
2023/10/29 17:31:22;;;;;;;5.78;1.25;;;;;;;;;;7370458;19;20258;-75
2023/10/29 17:33:47;;;;;;;6.13;1.42;;;;;;;;;;7365251;19;20114;-77
2023/10/29 17:36:16;;;;;;;5.90;1.03;;;;;;;;;;7364707;19;20007;-76
2023/10/29 17:38:42;;;;;;;7.15;1.60;;;;;;;;;;7369936;19;20247;-75
2023/10/29 17:41:14;;;;;;;5.78;1.25;;;;;;;;;;7362403;19;20005;-77
2023/10/29 17:43:40;;;;;;;6.47;1.13;;;;;;;;;;7366331;19;20150;-76
2023/10/29 17:46:05;;;;;;;6.32;1.45;;;;;;;;;;7367160;19;20078;-76
2023/10/29 17:48:31;;;;;;;9.43;1.70;;;;;;;;;;7341389;19;20007;-92
2023/10/29 17:50:57;;;;;;;12.15;2.17;;;;;;;;;;7375674;19;20895;-89
2023/10/29 17:53:22;;;;;;;8.68;1.48;;;;;;;;;;7378129;19;20321;-90
2023/10/29 17:55:54;;;;;;;8.13;1.58;;;;;;;;;;7372034;19;20305;-94
2023/10/29 17:58:20;;;;;;;11.57;2.13;;;;;;;;;;7390426;19;20003;-87
2023/10/29 18:00:45;;;;;;;10.25;1.77;;;;;;;;;;7393687;19;19998;-90
2023/10/29 18:03:10;;;;;;;10.25;2.28;;;;;;;;;;7378566;19;19999;-88
2023/10/29 18:05:35;;;;;;;6.63;1.40;;;;;;;;;;7386793;19;20005;-93
2023/10/29 18:08:01;;;;;;;10.30;2.10;;;;;;;;;;7384891;19;19990;-90
2023/10/29 18:10:33;;;;;;;13.77;2.10;;;;;;;;;;7391999;19;19983;-91
2023/10/29 18:13:00;;;;;;;15.82;2.63;;;;;;;;;;7394594;19;20255;-88
2023/10/29 18:15:25;;;;;;;12.57;1.98;;;;;;;;;;7384671;19;20482;-89
2023/10/29 18:17:50;;;;;;;10.10;2.15;;;;;;;;;;7385718;19;20366;-91
2023/10/29 18:20:16;;;;;;;9.40;2.22;;;;;;;;;;7371638;19;20006;-95
2023/10/29 18:22:41;;;;;;;10.55;2.05;;;;;;;;;;7367241;19;20014;-88
2023/10/29 18:25:09;;;;;;;9.98;2.13;;;;;;;;;;7382285;19;20091;-89
2023/10/29 18:27:35;;;;;;;12.25;2.42;;;;;;;;;;7375008;19;19998;-88
2023/10/29 18:30:04;;;;;;;11.73;2.03;;;;;;;;;;7369979;19;20014;-88
2023/10/29 18:32:30;;;;;;;13.48;2.97;;;;;;;;;;7380354;19;20035;-89
2023/10/29 18:34:58;;;;;;;12.70;2.13;;;;;;;;;;7380291;19;20439;-91
2023/10/29 18:37:23;;;;;;;11.55;2.35;;;;;;;;;;7369833;19;20007;-88
2023/10/29 18:39:48;;;;;;;12.32;2.47;;;;;;;;;;7377226;19;20599;-89
2023/10/29 18:42:13;;;;;;;11.55;2.55;;;;;;;;;;7376553;19;20003;-89
2023/10/29 18:44:39;;;;;;;11.23;2.17;;;;;;;;;;7369524;19;20037;-88
2023/10/29 18:47:07;;;;;;;13.60;2.88;;;;;;;;;;7371181;19;20002;-88
2023/10/29 18:49:32;;;;;;;13.77;2.38;;;;;;;;;;7377940;19;20015;-89
2023/10/29 18:51:58;;;;;;;11.05;1.92;;;;;;;;;;7381487;19;20027;-90
2023/10/29 18:54:23;;;;;;;10.87;2.07;;;;;;;;;;7389281;19;20479;-93
2023/10/29 18:56:49;;;;;;;10.27;2.10;;;;;;;;;;7368604;19;20268;-89
2023/10/29 18:59:14;;;;;;;10.27;2.13;;;;;;;;;;7373081;19;20036;-91
2023/10/29 19:01:39;;;;;;;11.40;1.80;;;;;;;;;;7380354;19;20003;-87
2023/10/29 19:04:04;;;;;;;15.95;2.65;;;;;;;;;;7378270;19;20247;-88
2023/10/29 19:06:29;;;;;;;10.00;2.40;;;;;;;;;;7373928;19;20629;-89
2023/10/29 19:08:55;;;;;;;13.07;2.28;;;;;;;;;;7370781;19;20078;-88
2023/10/29 19:11:21;;;;;;;10.57;2.22;;;;;;;;;;7370157;19;20006;-89
2023/10/29 19:13:48;;;;;;;9.30;1.90;;;;;;;;;;7393466;19;20013;-87
2023/10/29 19:16:14;;;;;;;11.73;2.63;;;;;;;;;;7375905;19;19991;-91
2023/10/29 19:18:39;;;;;;;14.40;2.83;;;;;;;;;;7373481;19;20019;-90
2023/10/29 19:21:08;;;;;;;15.90;2.70;;;;;;;;;;7372471;19;20849;-87
2023/10/29 19:23:33;;;;;;;12.00;2.45;;;;;;;;;;7350084;19;20617;-92
2023/10/29 19:26:02;;;;;;;11.00;2.75;;;;;;;;;;7348024;19;19998;-95
2023/10/29 19:28:27;;;;;;;10.02;1.98;;;;;;;;;;7387228;19;20006;-90
2023/10/29 19:30:52;;;;;;;13.32;2.33;;;;;;;;;;7394089;19;20010;-91
2023/10/29 19:33:17;;;;;;;11.38;2.33;;;;;;;;;;7374402;19;19998;-91
2023/10/29 19:35:43;;;;;;;10.50;1.77;;;;;;;;;;7366646;19;19998;-89
2023/10/29 19:38:08;;;;;;;11.48;2.05;;;;;;;;;;7375253;19;20283;-90
2023/10/29 19:40:33;;;;;;;12.82;2.33;;;;;;;;;;7369689;19;20177;-88
2023/10/29 19:42:58;;;;;;;14.63;2.20;;;;;;;;;;7374572;19;20493;-91
2023/10/29 19:45:25;;;;;;;14.48;2.17;;;;;;;;;;7360138;19;20400;-91
2023/10/29 19:47:50;;;;;;;10.68;2.15;;;;;;;;;;7372908;19;19998;-90
2023/10/29 19:50:15;;;;;;;8.15;1.95;;;;;;;;;;7371594;19;20024;-92
2023/10/29 19:52:41;;;;;;;12.07;2.30;;;;;;;;;;7365679;19;20434;-88
2023/10/29 19:55:07;;;;;;;16.60;2.15;;;;;;;;;;7361247;19;20002;-89
2023/10/29 19:57:32;;;;;;;10.70;2.55;;;;;;;;;;7363505;19;19999;-86
2023/10/29 19:59:58;;;;;;;15.52;2.88;;;;;;;;;;7366770;19;20018;-87
2023/10/29 20:02:24;;;;;;;11.82;2.45;;;;;;;;;;7355233;19;20002;-91
2023/10/29 20:04:49;;;;;;;12.27;2.28;;;;;;;;;;7376449;19;20011;-91
2023/10/29 20:07:15;;;;;;;14.10;2.42;;;;;;;;;;7376832;19;20533;-91
2023/10/29 20:09:40;;;;;;;15.38;2.55;;;;;;;;;;7378170;19;20005;-90
2023/10/29 20:12:05;;;;;;;12.10;2.53;;;;;;;;;;7378595;19;20032;-89
2023/10/29 20:14:30;;;;;;;10.75;2.30;;;;;;;;;;7373814;19;20256;-88
2023/10/29 20:16:57;;;;;;;13.75;2.42;;;;;;;;;;7374615;19;20027;-89
2023/10/29 20:19:23;;;;;;;12.57;2.03;;;;;;;;;;7368974;19;19995;-92
2023/10/29 20:21:48;;;;;;;13.00;2.47;;;;;;;;;;7362696;19;20003;-90
2023/10/29 20:24:13;;;;;;;14.03;3.07;;;;;;;;;;7379142;19;20002;-91
2023/10/29 20:26:39;;;;;;;11.68;2.30;;;;;;;;;;7371783;19;20254;-92
2023/10/29 20:29:06;;;;;;;14.27;2.70;;;;;;;;;;7377521;19;20016;-88
2023/10/29 20:31:35;;;;;;;9.27;2.33;;;;;;;;;;7367199;19;20298;-92
2023/10/29 20:34:01;;;;;;;11.98;2.83;;;;;;;;;;7380324;19;19994;-86
2023/10/29 20:36:26;;;;;;;10.85;2.33;;;;;;;;;;7379241;19;20014;-94
2023/10/29 20:38:51;;;;;;;14.20;2.75;;;;;;;;;;7393119;19;20009;-89
2023/10/29 20:41:16;;;;;;;12.85;2.63;;;;;;;;;;7348372;19;20003;-92
2023/10/29 20:43:44;;;;;;;14.38;2.75;;;;;;;;;;7382528;19;20350;-88
2023/10/29 20:46:11;;;;;;;17.33;3.25;;;;;;;;;;7384547;19;20327;-89
2023/10/29 20:48:37;;;;;;;15.20;2.65;;;;;;;;;;7378567;19;20086;-89
2023/10/29 20:51:05;;;;;;;20.60;2.55;;;;;;;;;;7373896;19;20777;-89
2023/10/29 20:53:30;;;;;;;11.88;2.63;;;;;;;;;;7378634;19;20002;-88
2023/10/29 20:55:55;;;;;;;16.52;3.05;;;;;;;;;;7374454;19;20010;-89
2023/10/29 20:58:20;;;;;;;14.43;2.37;;;;;;;;;;7378309;19;19995;-87
2023/10/29 21:00:48;;;;;;;12.45;2.60;;;;;;;;;;7376701;19;20241;-88
2023/10/29 21:03:13;;;;;;;17.90;3.17;;;;;;;;;;7387115;19;19987;-96
2023/10/29 21:05:39;;;;;;;16.55;2.85;;;;;;;;;;7384596;19;20019;-88
2023/10/29 21:08:04;;;;;;;13.77;2.50;;;;;;;;;;7382708;19;19999;-87
2023/10/29 21:10:30;;;;;;;17.07;2.60;;;;;;;;;;7367806;19;20251;-90
2023/10/29 21:12:56;;;;;;;13.60;2.88;;;;;;;;;;7377792;19;20285;-88
2023/10/29 21:15:23;;;;;;;16.00;2.92;;;;;;;;;;7372605;19;20030;-89
2023/10/29 21:17:49;;;;;;;16.75;3.15;;;;;;;;;;7377463;19;20002;-88
2023/10/29 21:20:14;;;;;;;13.55;2.75;;;;;;;;;;7391450;19;20004;-88
2023/10/29 21:22:39;;;;;;;14.68;3.08;;;;;;;;;;7374126;19;20009;-91
2023/10/29 21:25:05;;;;;;;16.10;2.58;;;;;;;;;;7382477;19;20002;-89
2023/10/29 21:27:31;;;;;;;14.30;3.03;;;;;;;;;;7367700;19;20003;-92
2023/10/29 21:29:56;;;;;;;13.85;2.78;;;;;;;;;;7373979;19;20024;-89
2023/10/29 21:32:21;;;;;;;13.70;2.78;;;;;;;;;;7384497;19;20411;-87
2023/10/29 21:34:46;;;;;;;12.07;2.80;;;;;;;;;;7384990;19;20326;-89
2023/10/29 21:37:11;;;;;;;14.07;2.80;;;;;;;;;;7379639;19;20258;-89
2023/10/29 21:39:37;;;;;;;14.23;2.60;;;;;;;;;;7384921;19;21025;-87
2023/10/29 21:42:02;;;;;;;21.17;2.78;;;;;;;;;;7369274;19;20274;-89
2023/10/29 21:44:27;;;;;;;14.73;3.30;;;;;;;;;;7377348;19;19990;-90
2023/10/29 21:46:53;;;;;;;13.70;2.40;;;;;;;;;;7376681;19;20020;-89
2023/10/29 21:49:18;;;;;;;14.10;3.05;;;;;;;;;;7374924;19;20050;-91
2023/10/29 21:51:43;;;;;;;18.42;3.10;;;;;;;;;;7372205;19;20010;-90
2023/10/29 21:54:08;;;;;;;14.80;2.42;;;;;;;;;;7376016;19;20438;-88
2023/10/29 21:56:33;;;;;;;14.07;2.63;;;;;;;;;;7307931;19;20426;-91
2023/10/29 21:58:58;;;;;;;15.23;2.55;;;;;;;;;;7375458;19;20010;-90
2023/10/29 22:01:24;;;;;;;15.20;2.63;;;;;;;;;;7371244;19;20022;-87
2023/10/29 22:03:49;;;;;;;16.10;3.08;;;;;;;;;;7390342;19;20058;-89
2023/10/29 22:06:15;;;;;;;12.23;2.72;;;;;;;;;;7380725;19;20126;-87
2023/10/29 22:08:41;;;;;;;15.90;3.53;;;;;;;;;;7381118;19;20006;-88
2023/10/29 22:11:07;;;;;;;17.27;2.60;;;;;;;;;;7392538;19;20016;-92
2023/10/29 22:13:35;;;;;;;14.82;2.75;;;;;;;;;;7399067;19;19995;-91
2023/10/29 22:16:19;;;;;;;16.60;3.40;;;;;;;;;;7400547;19;20521;-88
2023/10/29 22:18:44;;;;;;;;;;;;;;;;;;7382198;19;20387;-86
2023/10/29 22:21:10;;;;;;;14.18;2.80;;;;;;;;;;7382026;19;19919;-86
2023/10/29 22:23:36;;;;;;;18.20;3.40;;;;;;;;;;7381684;19;20006;-89
2023/10/29 22:26:01;;;;;;;16.10;3.03;;;;;;;;;;7375110;19;20348;-87
2023/10/29 22:28:27;;;;;;;14.85;3.15;;;;;;;;;;7384273;19;19998;-87
2023/10/29 22:30:52;;;;;;;14.50;3.03;;;;;;;;;;7381074;19;20027;-89
2023/10/29 22:33:17;;;;;;;11.48;2.95;;;;;;;;;;7375764;19;20428;-90
2023/10/29 22:35:43;;;;;;;16.37;2.80;;;;;;;;;;7379081;19;19995;-87
2023/10/29 22:38:08;;;;;;;18.05;3.00;;;;;;;;;;7378792;19;20270;-85
2023/10/29 22:40:33;;;;;;;17.35;3.10;;;;;;;;;;7378806;19;20007;-88
2023/10/29 22:42:59;;;;;;;29.27;4.18;;;;;;;;;;7379930;19;20017;-88
2023/10/29 22:45:24;;;;;;;17.58;3.58;;;;;;;;;;7385365;19;20034;-87
2023/10/29 22:47:49;;;;;;;15.80;3.60;;;;;;;;;;7377052;19;19999;-88
2023/10/29 22:50:15;;;;;;;18.00;3.40;;;;;;;;;;7375975;19;20019;-89
2023/10/29 22:52:41;;;;;;;16.75;3.60;;;;;;;;;;7374244;19;20811;-90
2023/10/29 22:55:06;;;;;;;17.48;3.78;;;;;;;;;;7379303;19;19998;-87
2023/10/29 22:57:32;;;;;;;15.73;3.15;;;;;;;;;;7376969;19;20010;-90
2023/10/29 22:59:57;;;;;;;18.20;3.60;;;;;;;;;;7385813;19;19994;-89
2023/10/29 23:02:25;;;;;;;22.73;3.80;;;;;;;;;;7372548;19;20027;-89
2023/10/29 23:04:50;;;;;;;19.90;3.20;;;;;;;;;;7379771;19;20005;-91
2023/10/29 23:07:15;;;;;;;17.40;3.72;;;;;;;;;;7381701;19;20006;-88
2023/10/29 23:09:41;;;;;;;15.55;3.30;;;;;;;;;;7379704;19;19999;-87
2023/10/29 23:12:06;;;;;;;19.25;3.50;;;;;;;;;;7378520;19;20005;-91
2023/10/29 23:14:31;;;;;;;16.67;3.35;;;;;;;;;;7377582;19;20005;-91
2023/10/29 23:16:58;;;;;;;13.93;2.55;;;;;;;;;;7379721;19;20030;-88
2023/10/29 23:19:23;;;;;;;12.90;3.00;;;;;;;;;;7377762;19;19998;-88
2023/10/29 23:21:49;;;;;;;20.20;3.70;;;;;;;;;;7376514;19;20002;-90
2023/10/29 23:24:14;;;;;;;19.33;3.67;;;;;;;;;;7377800;19;20010;-89
2023/10/29 23:26:39;;;;;;;17.07;3.17;;;;;;;;;;7378218;19;20074;-94
2023/10/29 23:29:05;;;;;;;24.93;3.67;;;;;;;;;;7392628;19;20779;-91
2023/10/29 23:31:30;;;;;;;17.77;3.37;;;;;;;;;;7381322;19;20251;-88
2023/10/29 23:33:55;;;;;;;24.08;3.92;;;;;;;;;;7376189;19;20259;-87
2023/10/29 23:36:20;;;;;;;14.88;2.85;;;;;;;;;;7379485;19;20597;-86
2023/10/29 23:38:45;;;;;;;17.23;3.60;;;;;;;;;;7376988;19;20459;-88
2023/10/29 23:41:10;;;;;;;17.40;2.80;;;;;;;;;;7357489;19;20247;-88
2023/10/29 23:43:35;;;;;;;14.80;3.17;;;;;;;;;;7374610;19;20593;-88
2023/10/29 23:46:01;;;;;;;21.77;3.50;;;;;;;;;;7378480;19;20227;-91
2023/10/29 23:48:26;;;;;;;17.52;3.58;;;;;;;;;;7374391;19;21033;-89
2023/10/29 23:50:51;;;;;;;18.60;3.30;;;;;;;;;;7376068;19;20686;-89
2023/10/29 23:53:17;;;;;;;19.92;3.95;;;;;;;;;;7378135;19;20274;-87
2023/10/29 23:55:42;;;;;;;23.37;3.70;;;;;;;;;;7370008;19;19998;-88
2023/10/29 23:58:08;;;;;;;15.13;2.85;;;;;;;;;;7376185;19;20567;-89
